Time;durP1;ratioP1;P1;durP2;ratioP2;P2;SDS_P1;SDS_P2;PMS_P1;PMS_P2;Temp;Humidity;BMP_temperature;BMP_pressure;BME280_temperature;BME280_humidity;BME280_pressure;Samples;Min_cycle;Max_cycle;Signal;HPM_P1;HPM_P2
2023/04/18 00:00:17;;;;;;;;;67.67;51.00;;;;;10.12;85.51;102292.41;5145295;27;45435;-65
2023/04/18 00:02:44;;;;;;;;;72.67;54.33;;;;;10.20;86.19;102309.13;5145104;27;45452;-65
2023/04/18 00:05:11;;;;;;;;;65.00;49.33;;;;;10.35;86.42;102323.25;5142808;27;46524;-65
2023/04/18 00:07:36;;;;;;;;;63.00;49.00;;;;;10.38;85.87;102316.25;5141404;27;45417;-65
2023/04/18 00:10:03;;;;;;;;;74.00;54.33;;;;;10.39;86.03;102309.22;5141576;27;45456;-65
2023/04/18 00:12:29;;;;;;;;;71.67;53.00;;;;;10.41;86.18;102300.47;5141841;27;45500;-65
2023/04/18 00:14:54;;;;;;;;;70.67;50.67;;;;;10.36;86.56;102296.91;5141210;27;47108;-65
2023/04/18 00:17:20;;;;;;;;;73.67;56.33;;;;;10.36;86.39;102290.78;5141108;27;45331;-65
2023/04/18 00:19:45;;;;;;;;;74.67;55.67;;;;;10.46;85.81;102300.47;5141470;27;45327;-65
2023/04/18 00:22:12;;;;;;;;;71.00;55.00;;;;;10.49;86.52;102308.38;5141231;27;45377;-66
2023/04/18 00:24:39;;;;;;;;;76.67;53.00;;;;;10.47;86.71;102298.69;5141242;27;46360;-66
2023/04/18 00:27:04;;;;;;;;;73.67;53.00;;;;;10.42;86.74;102286.41;5141184;27;45361;-66
2023/04/18 00:29:30;;;;;;;;;77.33;53.00;;;;;10.45;85.81;102291.66;5141323;27;45368;-65
2023/04/18 00:31:56;;;;;;;;;74.33;53.67;;;;;10.49;85.40;102300.47;5141896;27;45351;-65
2023/04/18 00:34:21;;;;;;;;;70.33;52.67;;;;;10.43;86.04;102292.56;5141165;27;45449;-65
2023/04/18 00:36:47;;;;;;;;;72.00;56.67;;;;;10.49;87.18;102299.59;5141392;27;45234;-65
2023/04/18 00:39:12;;;;;;;;;74.67;56.33;;;;;10.47;86.72;102288.16;5141120;27;45471;-65
2023/04/18 00:41:37;;;;;;;;;72.67;53.67;;;;;10.43;87.41;102282.91;5141108;27;45640;-65
2023/04/18 00:44:03;;;;;;;;;76.50;57.50;;;;;10.45;87.03;102281.13;5141038;27;46422;-65
2023/04/18 00:46:28;;;;;;;;;72.33;54.00;;;;;10.44;86.32;102270.59;5140985;27;45404;-65
2023/04/18 00:48:53;;;;;;;;;75.00;55.00;;;;;10.51;86.67;102282.03;5141383;27;45357;-65
2023/04/18 00:51:20;;;;;;;;;74.33;54.33;;;;;10.41;86.96;102265.31;5141272;27;45269;-65
2023/04/18 00:53:45;;;;;;;;;72.00;52.67;;;;;10.49;86.59;102275.91;5140620;27;47515;-65
2023/04/18 00:56:11;;;;;;;;;74.00;55.67;;;;;10.39;86.54;102262.69;5140411;27;45474;-66
2023/04/18 00:58:39;;;;;;;;;73.67;53.67;;;;;10.36;86.00;102267.09;5140754;27;45363;-66
2023/04/18 01:01:04;;;;;;;;;70.67;53.67;;;;;10.33;86.64;102257.38;5141017;27;45552;-66
2023/04/18 01:03:30;;;;;;;;;70.00;54.00;;;;;10.43;86.41;102282.91;5140596;27;46344;-65
2023/04/18 01:05:56;;;;;;;;;67.33;52.33;;;;;10.34;86.71;102264.44;5140790;27;45299;-65
2023/04/18 01:08:22;;;;;;;;;70.67;55.33;;;;;10.42;87.02;102273.22;5140879;27;45249;-65
2023/04/18 01:10:48;;;;;;;;;66.67;51.00;;;;;10.37;86.25;102264.47;5140652;27;45343;-65
2023/04/18 01:13:14;;;;;;;;;69.33;51.33;;;;;10.47;86.56;102269.72;5140831;27;45488;-65
2023/04/18 01:15:41;;;;;;;;;70.33;53.67;;;;;10.42;86.85;102260.06;5140440;27;45473;-65
2023/04/18 01:18:07;;;;;;;;;71.33;53.33;;;;;10.46;86.34;102263.59;5140052;27;45371;-65
2023/04/18 01:20:35;;;;;;;;;66.67;52.67;;;;;10.43;86.03;102260.97;5140695;27;45239;-65
2023/04/18 01:23:02;;;;;;;;;71.00;53.33;;;;;10.45;86.32;102257.44;5140198;27;46580;-65
2023/04/18 01:25:27;;;;;;;;;71.33;50.67;;;;;10.42;86.06;102246.91;5140365;27;45431;-65
2023/04/18 01:27:53;;;;;;;;;71.00;52.67;;;;;10.39;86.59;102244.25;5140467;27;45389;-65
2023/04/18 01:30:19;;;;;;;;;72.33;52.00;;;;;10.40;85.86;102253.06;5140510;27;45439;-65
2023/04/18 01:32:44;;;;;;;;;68.67;50.00;;;;;10.35;86.48;102242.50;5140141;27;46631;-65
2023/04/18 01:35:10;;;;;;;;;70.00;51.00;;;;;10.41;85.81;102241.63;5140319;27;45306;-65
2023/04/18 01:37:35;;;;;;;;;64.00;49.00;;;;;10.35;85.54;102233.72;5140339;27;45334;-65
2023/04/18 01:40:01;;;;;;;;;73.00;53.00;;;;;10.42;85.35;102243.41;5140362;27;45549;-65
2023/04/18 01:42:26;;;;;;;;;68.33;51.33;;;;;10.39;85.18;102231.09;5139790;27;46086;-65
2023/04/18 01:44:51;;;;;;;;;68.33;52.00;;;;;10.31;85.20;102224.94;5140049;27;45339;-65
2023/04/18 01:47:17;;;;;;;;;61.67;50.00;;;;;10.23;85.27;102213.50;5140254;27;45390;-65
2023/04/18 01:49:46;;;;;;;;;68.33;50.67;;;;;10.27;85.30;102225.78;5140562;27;45255;-65
2023/04/18 01:52:13;;;;;;;;;61.67;49.33;;;;;10.19;85.08;102212.59;5139797;27;47544;-65
2023/04/18 01:54:38;;;;;;;;;66.67;51.67;;;;;10.14;85.30;102210.81;5139754;27;45516;-65
2023/04/18 01:57:04;;;;;;;;;64.67;50.00;;;;;10.14;85.23;102213.44;5140027;27;45430;-65
2023/04/18 01:59:29;;;;;;;;;62.67;49.33;;;;;10.01;85.48;102199.41;5140138;27;45360;-65
2023/04/18 02:01:55;;;;;;;;;61.00;48.33;;;;;10.02;85.35;102211.66;5139901;27;46231;-65
2023/04/18 02:04:20;;;;;;;;;64.67;47.67;;;;;9.91;85.03;102195.84;5139875;27;45518;-65
2023/04/18 02:06:45;;;;;;;;;61.33;49.67;;;;;9.95;84.89;102216.03;5140063;27;45210;-65
2023/04/18 02:09:11;;;;;;;;;67.33;50.00;;;;;9.93;85.01;102215.13;5139913;27;45297;-66
2023/04/18 02:11:36;;;;;;;;;60.67;48.33;;;;;9.88;84.89;102215.13;5139426;27;45568;-65
2023/04/18 02:14:02;;;;;;;;;58.00;47.33;;;;;9.86;85.53;102224.78;5139587;27;45452;-65
2023/04/18 02:16:27;;;;;;;;;60.67;48.00;;;;;9.82;85.16;102217.75;5139981;27;45223;-65
2023/04/18 02:18:52;;;;;;;;;65.00;50.00;;;;;9.80;84.79;102219.47;5139772;27;45379;-65
2023/04/18 02:21:17;;;;;;;;;66.67;48.67;;;;;9.67;84.92;102191.38;5139520;27;45580;-65
2023/04/18 02:23:43;;;;;;;;;64.00;49.33;;;;;9.73;84.17;102210.69;5139633;27;45371;-65
2023/04/18 02:26:08;;;;;;;;;66.33;50.00;;;;;9.63;84.80;102205.38;5139703;27;45385;-65
2023/04/18 02:28:34;;;;;;;;;66.00;50.67;;;;;9.63;85.20;102211.53;5138870;27;45216;-65
2023/04/18 02:30:59;;;;;;;;;62.00;48.00;;;;;9.55;85.13;102195.69;5139231;27;47215;-65
2023/04/18 02:33:25;;;;;;;;;71.67;51.33;;;;;9.59;84.91;102202.72;5139316;27;45347;-65
2023/04/18 02:35:50;;;;;;;;;62.00;48.67;;;;;9.54;84.78;102199.22;5139684;27;45327;-65
2023/04/18 02:38:15;;;;;;;;;65.00;48.67;;;;;9.53;85.03;102202.69;5139675;27;45499;-65
2023/04/18 02:40:41;;;;;;;;;66.00;49.67;;;;;9.50;84.97;102207.94;5139122;27;46469;-65
2023/04/18 02:43:07;;;;;;;;;66.67;48.00;;;;;9.52;84.88;102210.59;5139021;27;45315;-65
2023/04/18 02:45:32;;;;;;;;;63.67;50.33;;;;;9.43;84.81;102205.28;5139341;27;45296;-65
2023/04/18 02:47:57;;;;;;;;;54.67;45.33;;;;;9.40;84.60;102191.25;5139498;27;45392;-65
2023/04/18 02:50:23;;;;;;;;;65.33;49.67;;;;;9.41;84.73;102202.66;5138994;27;45397;-65
2023/04/18 02:52:49;;;;;;;;;62.00;50.33;;;;;9.40;84.78;102201.75;5139132;27;45704;-65
2023/04/18 02:55:14;;;;;;;;;65.67;49.67;;;;;9.37;84.72;102195.63;5138953;27;45407;-65
2023/04/18 02:57:39;;;;;;;;;66.33;49.67;;;;;9.12;84.54;102152.53;5139208;27;45593;-65
2023/04/18 03:00:07;;;;;;;;;62.67;47.67;;;;;9.29;84.43;102190.28;5138848;27;46371;-65
2023/04/18 03:02:32;;;;;;;;;68.33;51.00;;;;;9.34;84.20;102198.22;5139122;27;45475;-65
2023/04/18 03:04:57;;;;;;;;;66.00;46.33;;;;;9.22;83.96;102178.88;5126178;27;45442;-65
2023/04/18 03:07:23;;;;;;;;;67.00;50.67;;;;;9.23;84.19;102180.63;5118410;27;45355;-65
2023/04/18 03:09:48;;;;;;;;;63.00;48.00;;;;;9.21;84.19;102190.25;5117961;27;45239;-65
2023/04/18 03:12:13;;;;;;;;;67.67;50.00;;;;;9.24;84.22;102195.53;5118177;27;45203;-65
2023/04/18 03:14:39;;;;;;;;;66.67;48.00;;;;;9.18;84.10;102192.00;5118462;27;45217;-65
2023/04/18 03:17:04;;;;;;;;;61.00;48.00;;;;;9.17;84.08;102192.88;5118373;27;45651;-65
2023/04/18 03:19:30;;;;;;;;;66.67;49.33;;;;;9.18;84.05;102198.13;5117980;27;46413;-65
2023/04/18 03:21:56;;;;;;;;;67.33;49.67;;;;;9.11;84.02;102182.31;5118066;27;45285;-65
2023/04/18 03:24:21;;;;;;;;;60.67;47.33;;;;;9.03;84.09;102177.88;5118170;27;45387;-65
2023/04/18 03:26:46;;;;;;;;;68.33;48.33;;;;;9.02;84.13;102184.00;5118379;27;45513;-65
2023/04/18 03:29:12;;;;;;;;;56.33;46.67;;;;;9.05;84.38;102181.41;5117728;27;46229;-65
2023/04/18 03:31:38;;;;;;;;;69.00;48.67;;;;;9.06;84.53;102191.03;5117725;27;45408;-65
2023/04/18 03:34:03;;;;;;;;;67.33;48.67;;;;;9.04;84.34;102184.88;5117974;27;45387;-65
2023/04/18 03:36:30;;;;;;;;;60.00;47.00;;;;;9.01;84.68;102189.25;5118013;27;45518;-65
2023/04/18 03:38:55;;;;;;;;;64.33;49.33;;;;;8.93;84.53;102173.44;5116825;27;45481;-65
2023/04/18 03:41:20;;;;;;;;;61.00;48.00;;;;;8.97;84.11;102185.72;5122604;27;45354;-65
2023/04/18 03:43:46;;;;;;;;;64.00;48.67;;;;;8.86;84.20;102167.25;5142003;27;46013;-65
2023/04/18 03:46:11;;;;;;;;;62.00;45.00;;;;;8.95;84.25;102174.31;5142448;27;45340;-65
2023/04/18 03:48:36;;;;;;;;;63.00;47.67;;;;;8.99;84.32;102181.34;5141775;27;47299;-65
2023/04/18 03:51:02;;;;;;;;;56.33;45.67;;;;;8.87;84.04;102160.25;5142042;27;45469;-65
2023/04/18 03:53:27;;;;;;;;;67.00;51.00;;;;;8.94;84.47;102179.56;5142303;27;45303;-66
2023/04/18 03:55:53;;;;;;;;;69.00;49.50;;;;;8.91;84.04;102171.66;5142015;27;45311;-65
2023/04/18 03:58:22;;;;;;;;;59.67;46.67;;;;;8.87;84.50;102169.03;5141732;27;46692;-65
2023/04/18 04:00:48;;;;;;;;;62.33;47.67;;;;;8.85;84.41;102170.75;5141836;27;45419;-65
2023/04/18 04:03:13;;;;;;;;;61.00;49.00;;;;;8.87;84.51;102176.91;5141900;27;45318;-65
2023/04/18 04:05:39;;;;;;;;;68.67;50.33;;;;;8.83;84.59;102169.88;5141770;27;45315;-65
2023/04/18 04:08:05;;;;;;;;;67.00;51.00;;;;;8.58;84.28;102129.38;5141651;27;47137;-65
2023/04/18 04:10:30;;;;;;;;;65.67;49.67;;;;;8.81;84.33;102165.47;5141435;27;45446;-65
2023/04/18 04:12:55;;;;;;;;;67.00;51.33;;;;;8.56;84.52;102131.13;5141839;27;45328;-65
2023/04/18 04:15:21;;;;;;;;;63.33;47.33;;;;;8.80;84.51;102166.31;5141935;27;45302;-65
2023/04/18 04:17:46;;;;;;;;;63.67;50.67;;;;;8.82;84.95;102169.84;5141445;27;47156;-65
2023/04/18 04:20:12;;;;;;;;;58.00;47.33;;;;;8.84;84.72;102174.25;5141536;27;45368;-65
2023/04/18 04:22:37;;;;;;;;;63.33;48.00;;;;;8.57;84.48;102119.78;5141477;27;45510;-65
2023/04/18 04:25:04;;;;;;;;;55.33;43.00;;;;;8.71;84.30;102157.53;5141829;27;45221;-65
2023/04/18 04:27:29;;;;;;;;;67.00;48.33;;;;;8.79;84.64;102168.06;5141206;27;46673;-65
2023/04/18 04:29:55;;;;;;;;;66.67;50.00;;;;;8.79;84.53;102168.06;5141127;27;45318;-65
2023/04/18 04:32:21;;;;;;;;;66.00;51.00;;;;;8.63;85.11;102143.44;5141159;27;45288;-65
2023/04/18 04:34:46;;;;;;;;;67.67;49.00;;;;;8.71;85.30;102152.28;5141674;27;45525;-65
2023/04/18 04:37:17;;;;;;;;;58.33;46.00;;;;;8.74;84.66;102161.91;5141097;27;46952;-65
2023/04/18 04:39:43;;;;;;;;;67.67;51.00;;;;;8.63;84.54;102140.81;5141088;27;45303;-65
2023/04/18 04:42:10;;;;;;;;;68.67;52.00;;;;;8.51;84.38;102115.34;5140845;27;45279;-65
2023/04/18 04:44:36;;;;;;;;;66.33;47.33;;;;;8.76;84.78;102161.91;5141350;27;45420;-65
2023/04/18 04:47:01;;;;;;;;;62.67;49.67;;;;;8.61;84.71;102153.06;5141214;27;46062;-65
2023/04/18 04:49:27;;;;;;;;;63.00;49.00;;;;;8.71;84.82;102160.16;5140980;27;45322;-65
2023/04/18 04:51:52;;;;;;;;;67.00;51.67;;;;;8.72;84.86;102163.66;5140321;27;45409;-65
2023/04/18 04:54:18;;;;;;;;;69.33;52.33;;;;;8.68;84.84;102165.38;5141443;27;45382;-65
2023/04/18 04:56:43;;;;;;;;;65.00;48.33;;;;;8.58;84.92;102142.50;5140666;27;45897;-65
2023/04/18 04:59:09;;;;;;;;;69.00;52.00;;;;;8.58;85.13;102144.28;5140201;27;45440;-65
2023/04/18 05:01:34;;;;;;;;;69.00;51.67;;;;;8.46;85.01;102117.03;5124846;27;45502;-65
2023/04/18 05:03:59;;;;;;;;;58.67;48.33;;;;;8.59;85.22;102146.91;5129240;27;45444;-65
2023/04/18 05:06:25;;;;;;;;;66.33;53.00;;;;;8.66;85.25;102161.84;5119870;27;47439;-65
2023/04/18 05:08:50;;;;;;;;;63.00;50.00;;;;;8.65;85.22;102159.22;5119886;27;45410;-65
2023/04/18 05:11:16;;;;;;;;;67.00;50.33;;;;;8.71;85.29;102161.88;5120061;27;45360;-65
2023/04/18 05:13:42;;;;;;;;;67.67;51.67;;;;;8.71;85.19;102162.78;5120121;27;45452;-65
2023/04/18 05:16:07;;;;;;;;;71.33;54.67;;;;;8.65;84.92;102152.19;5119811;27;46109;-65
2023/04/18 05:18:33;;;;;;;;;76.33;54.00;;;;;8.71;85.16;102165.41;5119566;27;45469;-65
2023/04/18 05:20:58;;;;;;;;;71.33;51.00;;;;;8.58;85.17;102134.63;5119824;27;45408;-65
2023/04/18 05:23:24;;;;;;;;;64.67;49.33;;;;;8.81;84.65;102166.31;5120310;27;45820;-65
2023/04/18 05:25:49;;;;;;;;;68.00;53.00;;;;;8.87;84.56;102157.63;5119304;27;46352;-65
2023/04/18 05:28:15;;;;;;;;;67.00;49.00;;;;;8.96;83.61;102154.16;5119730;27;45481;-65
2023/04/18 05:30:40;;;;;;;;;67.00;49.00;;;;;8.95;83.37;102155.94;5119601;27;45275;-65
2023/04/18 05:33:06;;;;;;;;;65.00;50.67;;;;;9.02;83.52;102170.88;5119848;27;45343;-65
2023/04/18 05:35:31;;;;;;;;;61.00;50.00;;;;;8.97;83.57;102161.19;5119158;27;46248;-65
2023/04/18 05:37:57;;;;;;;;;64.67;48.33;;;;;9.00;83.12;102169.09;5119264;27;45354;-65
2023/04/18 05:40:22;;;;;;;;;64.33;50.67;;;;;9.03;83.27;102172.63;5119732;27;45211;-65
2023/04/18 05:42:48;;;;;;;;;61.00;48.67;;;;;8.93;82.89;102155.06;5119149;27;45694;-65
2023/04/18 05:45:13;;;;;;;;;64.00;48.67;;;;;9.10;82.49;102163.03;5119028;27;47346;-65
2023/04/18 05:47:38;;;;;;;;;64.33;47.00;;;;;9.28;82.30;102182.41;5119157;27;45353;-65
2023/04/18 05:50:05;;;;;;;;;63.00;48.67;;;;;9.29;81.20;102168.41;5119375;27;45317;-65
2023/04/18 05:52:31;;;;;;;;;62.33;48.67;;;;;9.28;81.41;102175.41;5119576;27;45536;-65
2023/04/18 05:54:56;;;;;;;;;57.33;47.33;;;;;9.35;80.85;102181.56;5118982;27;46734;-65
2023/04/18 05:57:22;;;;;;;;;60.67;48.00;;;;;9.38;81.03;102185.09;5118736;27;45325;-65
2023/04/18 05:59:47;;;;;;;;;63.00;48.33;;;;;9.38;80.54;102176.31;5119336;27;45286;-65
2023/04/18 06:02:12;;;;;;;;;63.00;48.33;;;;;9.41;80.09;102182.50;5119296;27;45380;-65
2023/04/18 06:04:42;;;;;;;;;68.33;50.00;;;;;9.51;80.04;102190.41;5117767;27;46305;-65
2023/04/18 06:07:08;;;;;;;;;60.67;47.67;;;;;9.53;79.94;102189.56;5119205;27;45457;-65
2023/04/18 06:09:33;;;;;;;;;62.67;47.67;;;;;9.57;79.50;102185.22;5119008;27;45402;-65
2023/04/18 06:12:00;;;;;;;;;63.33;48.00;;;;;9.59;79.14;102183.44;5119125;27;45443;-65
2023/04/18 06:14:25;;;;;;;;;62.33;47.67;;;;;9.61;78.69;102171.16;5118702;27;46469;-65
2023/04/18 06:16:50;;;;;;;;;64.67;48.00;;;;;9.69;78.40;102181.75;5118647;27;45412;-65
2023/04/18 06:19:16;;;;;;;;;57.33;46.33;;;;;9.72;77.76;102184.38;5118958;27;45674;-65
2023/04/18 06:21:41;;;;;;;;;68.33;49.00;;;;;9.83;77.15;102176.53;5118909;27;45406;-65
2023/04/18 06:24:07;;;;;;;;;57.67;47.33;;;;;10.19;76.45;102185.41;5118381;27;45546;-65
2023/04/18 06:26:33;;;;;;;;;63.00;48.00;;;;;10.40;75.27;102187.22;5118583;27;45429;-65
2023/04/18 06:28:58;;;;;;;;;57.00;46.00;;;;;10.50;75.05;102186.38;5118799;27;45392;-65
2023/04/18 06:31:23;;;;;;;;;62.00;46.00;;;;;10.58;74.20;102186.34;5119136;27;45461;-65
2023/04/18 06:33:50;;;;;;;;;59.33;47.33;;;;;11.06;72.55;102181.06;5118368;27;45612;-65
2023/04/18 06:36:15;;;;;;;;;57.00;44.67;;;;;12.18;69.52;102185.94;5118685;27;45269;-65
2023/04/18 06:38:40;;;;;;;;;57.00;44.67;;;;;12.21;65.66;102141.91;5118595;27;45348;-65
2023/04/18 06:41:06;;;;;;;;;51.00;40.33;;;;;12.13;67.13;102173.66;5118771;27;45403;-65
2023/04/18 06:43:31;;;;;;;;;57.00;42.67;;;;;12.06;67.89;102177.22;5118310;27;46639;-65
2023/04/18 06:45:57;;;;;;;;;52.67;41.33;;;;;12.04;67.68;102171.94;5118400;27;45320;-65
2023/04/18 06:48:23;;;;;;;;;53.00;41.33;;;;;11.98;67.11;102183.41;5118780;27;45269;-65
2023/04/18 06:50:48;;;;;;;;;48.67;40.67;;;;;11.80;66.95;102159.72;5118542;27;45315;-65
2023/04/18 06:53:14;;;;;;;;;53.00;42.67;;;;;11.68;65.82;102165.94;5118372;27;45910;-65
2023/04/18 06:55:39;;;;;;;;;49.67;38.67;;;;;11.64;66.30;102190.56;5118409;27;45432;-65
2023/04/18 06:58:05;;;;;;;;;49.67;40.00;;;;;11.49;66.19;102188.88;5118001;27;45319;-65
2023/04/18 07:00:30;;;;;;;;;46.00;37.00;;;;;11.34;67.00;102187.13;5118456;27;45404;-65
2023/04/18 07:02:55;;;;;;;;;51.33;41.00;;;;;11.36;65.23;102176.63;5118153;27;45563;-65
2023/04/18 07:05:21;;;;;;;;;47.67;39.00;;;;;11.69;66.26;102178.25;5118322;27;45433;-65
2023/04/18 07:07:46;;;;;;;;;43.00;36.00;;;;;11.79;65.49;102182.59;5118180;27;45441;-65
2023/04/18 07:10:11;;;;;;;;;48.00;37.00;;;;;11.80;64.81;102180.81;5118380;27;45468;-64
2023/04/18 07:12:37;;;;;;;;;45.67;37.00;;;;;11.66;64.75;102175.59;5117983;27;45487;-66
2023/04/18 07:15:03;;;;;;;;;42.00;34.67;;;;;11.64;65.34;102170.34;5118049;27;45451;-66
2023/04/18 07:17:28;;;;;;;;;44.33;37.67;;;;;11.76;65.07;102177.34;5121596;27;45286;-66
2023/04/18 07:19:54;;;;;;;;;44.33;36.67;;;;;11.79;64.16;102182.59;5121785;27;45572;-66
2023/04/18 07:22:19;;;;;;;;;52.00;40.00;;;;;12.10;62.44;102177.19;5121481;27;46325;-65
2023/04/18 07:24:44;;;;;;;;;44.67;37.33;;;;;12.38;61.98;102186.69;5121819;27;45300;-65
2023/04/18 07:27:10;;;;;;;;;40.33;33.67;;;;;12.37;61.57;102183.16;5121782;27;45838;-65
2023/04/18 07:29:35;;;;;;;;;48.00;36.67;;;;;12.70;60.49;102179.38;5121941;27;45425;-65
2023/04/18 07:32:01;;;;;;;;;38.33;33.67;;;;;12.99;59.36;102183.53;5121183;27;45645;-65
2023/04/18 07:34:28;;;;;;;;;41.67;34.00;;;;;12.79;58.64;102157.28;5121570;27;45344;-65
2023/04/18 07:36:56;;;;;;;;;48.00;37.00;;;;;13.00;59.19;102187.06;5121436;27;45416;-66
2023/04/18 07:39:22;;;;;;;;;44.00;34.33;;;;;13.88;57.00;102189.63;5121547;27;45438;-66
2023/04/18 07:41:47;;;;;;;;;41.00;35.67;;;;;15.47;55.73;102151.63;5120906;27;46117;-66
2023/04/18 07:44:12;;;;;;;;;43.67;35.67;;;;;16.62;50.92;102192.47;5121369;27;45387;-66
2023/04/18 07:46:38;;;;;;;;;36.00;31.33;;;;;17.84;49.30;102144.72;5121615;27;45380;-65
2023/04/18 07:49:03;;;;;;;;;42.33;36.00;;;;;18.99;44.68;102189.06;5122033;27;45547;-65
2023/04/18 07:51:30;;;;;;;;;33.00;30.00;;;;;18.92;45.56;102178.63;5121300;27;46192;-65
2023/04/18 07:53:59;;;;;;;;;37.67;34.67;;;;;18.70;46.15;102181.09;5121387;27;45489;-65
2023/04/18 07:56:25;;;;;;;;;33.33;31.00;;;;;18.34;45.39;102162.75;5121077;27;45866;-65
2023/04/18 07:58:51;;;;;;;;;34.33;30.33;;;;;17.64;47.78;102179.09;5141777;27;45325;-65
2023/04/18 08:01:18;;;;;;;;;32.67;28.67;;;;;17.07;47.79;102184.22;5141024;27;46819;-65
2023/04/18 08:03:47;;;;;;;;;33.33;29.67;;;;;17.45;48.57;102181.41;5141339;27;45365;-65
2023/04/18 08:06:13;;;;;;;;;43.33;32.67;;;;;17.19;47.36;102183.00;5141613;27;45216;-65
2023/04/18 08:08:38;;;;;;;;;38.00;31.67;;;;;16.88;47.18;102181.19;5142047;27;45507;-65
2023/04/18 08:11:04;;;;;;;;;33.67;29.67;;;;;16.85;46.91;102181.22;5141701;27;46366;-65
2023/04/18 08:13:30;;;;;;;;;35.00;30.67;;;;;16.61;48.43;102180.91;5141428;27;45448;-64
2023/04/18 08:15:58;;;;;;;;;30.67;27.67;;;;;17.06;46.78;102115.94;5141050;27;45418;-64
2023/04/18 08:18:24;;;;;;;;;28.67;27.67;;;;;18.88;45.78;102163.63;5141677;27;45495;-64
2023/04/18 08:20:49;;;;;;;;;30.67;28.67;;;;;19.03;43.29;102177.34;5141547;27;46062;-64
2023/04/18 08:23:14;;;;;;;;;28.67;26.33;;;;;18.98;43.96;102168.63;5141458;27;45429;-64
2023/04/18 08:25:40;;;;;;;;;37.67;31.33;;;;;18.83;42.70;102154.00;5141512;27;45763;-64
2023/04/18 08:28:05;;;;;;;;;37.00;30.67;;;;;18.43;43.80;102151.75;5140563;27;45272;-64
2023/04/18 08:30:31;;;;;;;;;29.67;28.67;;;;;18.26;43.86;102160.31;5141249;27;46798;-64
2023/04/18 08:32:58;;;;;;;;;31.00;25.33;;;;;17.92;44.81;102157.81;5141365;27;45297;-64
2023/04/18 08:35:23;;;;;;;;;29.67;24.67;;;;;17.33;44.68;102146.22;5141344;27;45367;-65
2023/04/18 08:37:48;;;;;;;;;35.67;32.00;;;;;17.04;44.88;102150.56;5141850;27;45303;-65
2023/04/18 08:40:14;;;;;;;;;28.00;28.00;;;;;16.70;45.77;102145.25;5141236;27;46349;-65
2023/04/18 08:42:43;;;;;;;;;35.33;29.67;;;;;16.53;47.02;102122.63;5140810;27;45348;-64
2023/04/18 08:45:08;;;;;;;;;31.00;28.33;;;;;16.64;45.65;102154.28;5141512;27;45452;-65
2023/04/18 08:47:34;;;;;;;;;34.33;27.67;;;;;16.60;46.30;102151.72;5141414;27;45457;-65
2023/04/18 08:50:00;;;;;;;;;32.00;30.00;;;;;16.56;46.68;102150.94;5140994;27;45423;-65
2023/04/18 08:52:28;;;;;;;;;35.00;29.33;;;;;16.48;46.19;102151.13;5141248;27;45399;-64
2023/04/18 08:54:54;;;;;;;;;33.33;30.00;;;;;16.81;45.78;102147.63;5141071;27;45708;-65
2023/04/18 08:57:22;;;;;;;;;37.00;27.33;;;;;17.72;45.37;102147.78;5141434;27;45448;-65
2023/04/18 08:59:49;;;;;;;;;29.33;29.33;;;;;18.50;43.74;102151.56;5140696;27;47384;-65
2023/04/18 09:02:15;;;;;;;;;31.33;26.33;;;;;19.00;43.08;102150.78;5139946;27;45252;-65
2023/04/18 09:04:43;;;;;;;;;41.00;36.00;;;;;19.24;41.18;102144.53;5140891;27;45246;-65
2023/04/18 09:07:11;;;;;;;;;33.33;28.67;;;;;18.89;42.38;102136.00;5141015;27;45494;-65
2023/04/18 09:09:39;;;;;;;;;42.67;34.33;;;;;18.36;42.31;102144.03;5140442;27;46100;-65
2023/04/18 09:12:06;;;;;;;;;31.33;28.67;;;;;18.54;41.80;102142.53;5140807;27;45248;-65
2023/04/18 09:14:32;;;;;;;;;28.33;28.00;;;;;19.10;41.17;102115.66;5138648;27;45451;-65
2023/04/18 09:16:59;;;;;;;;;40.33;34.67;;;;;20.15;41.35;102138.38;5140058;27;45301;-65
2023/04/18 09:19:24;;;;;;;;;37.33;31.67;;;;;19.90;39.57;102137.63;5139868;27;46420;-65
2023/04/18 09:22:01;;;;;;;;;36.67;32.00;;;;;19.38;41.19;102141.34;5140364;27;45492;-63
2023/04/18 09:24:27;;;;;;;;;34.33;31.67;;;;;19.46;40.70;102135.69;5140794;27;45387;-65
2023/04/18 09:26:55;;;;;;;;;32.67;26.67;;;;;19.66;39.50;102103.78;5140489;27;45467;-65
2023/04/18 09:29:39;;;;;;;;;35.33;33.00;;;;;20.12;40.08;102138.50;5139878;27;45881;-64
2023/04/18 09:32:05;;;;;;;;;31.00;29.33;;;;;20.38;39.43;102122.31;5140040;27;45386;-65
2023/04/18 09:34:32;;;;;;;;;32.67;31.67;;;;;20.53;38.50;102119.88;5140722;27;45446;-64
2023/04/18 09:37:12;;;;;;;;;28.67;26.67;;;;;20.70;39.07;102123.66;5140689;27;45463;-65
2023/04/18 09:39:40;;;;;;;;;33.67;30.67;;;;;20.87;37.44;102080.94;5139856;27;46417;-65
2023/04/18 09:42:07;;;;;;;;;29.67;26.67;;;;;22.43;39.32;102119.13;5149045;27;45256;-65
2023/04/18 09:44:33;;;;;;;;;30.00;28.33;;;;;23.86;34.48;102116.91;5161090;27;45416;-65
2023/04/18 09:46:58;;;;;;;;;32.00;30.00;;;;;24.87;30.68;102115.50;5161479;27;45247;-65
2023/04/18 09:49:24;;;;;;;;;29.00;28.33;;;;;25.84;32.73;102111.22;5161231;27;46283;-64
2023/04/18 09:51:52;;;;;;;;;31.67;27.67;;;;;25.98;30.65;102115.66;5160984;27;45374;-64
2023/04/18 09:54:19;;;;;;;;;33.33;29.00;;;;;25.00;29.86;102124.53;5161366;27;45439;-65
2023/04/18 09:56:46;;;;;;;;;28.67;26.67;;;;;25.51;33.46;102121.38;5161262;27;45482;-65
2023/04/18 09:59:15;;;;;;;;;33.00;30.33;;;;;25.99;30.32;102126.38;5160685;27;45475;-65
2023/04/18 10:01:46;;;;;;;;;30.67;29.67;;;;;24.96;29.60;102114.06;5160941;27;45414;-65
2023/04/18 10:04:15;;;;;;;;;36.00;31.33;;;;;24.38;32.59;102116.59;5160725;27;45327;-65
2023/04/18 10:06:41;;;;;;;;;35.67;29.67;;;;;24.31;33.90;102110.72;5161026;27;45377;-65
2023/04/18 10:09:08;;;;;;;;;27.33;27.33;;;;;25.23;31.20;102108.78;5160619;27;47679;-65
2023/04/18 10:11:35;;;;;;;;;37.33;32.33;;;;;25.62;30.98;102093.72;5160891;27;45428;-65
2023/04/18 10:14:05;;;;;;;;;30.33;28.67;;;;;25.20;31.35;102108.97;5160695;27;45355;-65
2023/04/18 10:16:32;;;;;;;;;37.67;30.33;;;;;24.91;31.37;102092.78;5160856;27;45528;-65
2023/04/18 10:19:28;;;;;;;;;37.00;31.33;;;;;24.64;31.47;102100.75;5160368;27;46030;-65
2023/04/18 10:21:55;;;;;;;;;35.00;32.33;;;;;24.39;32.49;102099.50;5159940;27;45336;-65
2023/04/18 10:24:48;;;;;;;;;30.67;29.33;;;;;23.99;32.67;102093.75;5160528;27;45353;-65
2023/04/18 10:27:16;;;;;;;;;33.33;30.00;;;;;23.67;32.85;102095.59;5160716;27;45259;-65
2023/04/18 10:29:47;;;;;;;;;37.33;29.67;;;;;23.26;33.83;102092.44;5160214;27;46424;-65
2023/04/18 10:32:13;;;;;;;;;26.67;26.67;;;;;23.04;33.65;102059.59;5160456;27;45359;-65
2023/04/18 10:34:39;;;;;;;;;35.67;33.00;;;;;23.23;32.59;102067.56;5160743;27;45427;-65
2023/04/18 10:37:05;;;;;;;;;37.00;30.33;;;;;23.39;33.57;102091.75;5160699;27;45437;-65
2023/04/18 10:39:46;;;;;;;;;37.67;32.67;;;;;23.03;32.69;102101.69;5160014;27;46437;-65
2023/04/18 10:42:12;;;;;;;;;45.67;33.67;;;;;22.95;31.91;102088.69;5160264;27;45344;-64
2023/04/18 10:44:37;;;;;;;;;40.00;33.33;;;;;22.97;32.50;102074.31;5160490;27;45512;-65
2023/04/18 10:47:05;;;;;;;;;42.00;36.00;;;;;22.99;32.52;102092.09;5160661;27;45353;-65
2023/04/18 10:49:31;;;;;;;;;35.67;32.33;;;;;22.89;32.56;102078.28;5159451;27;46353;-65
2023/04/18 10:51:58;;;;;;;;;40.33;34.33;;;;;22.73;32.06;102085.44;5160200;27;45440;-65
2023/04/18 10:54:37;;;;;;;;;39.33;34.00;;;;;22.25;33.40;102048.47;5160243;27;45298;-65
2023/04/18 10:57:06;;;;;;;;;40.00;33.67;;;;;22.08;32.69;102086.88;5160223;27;45471;-65
2023/04/18 10:59:37;;;;;;;;;45.67;35.33;;;;;21.32;33.97;102086.06;5159816;27;46255;-66
2023/04/18 11:02:20;;;;;;;;;39.00;34.00;;;;;20.91;34.83;102094.19;5159999;27;45400;-65
2023/04/18 11:04:54;;;;;;;;;41.67;34.67;;;;;20.35;35.45;102084.06;5160192;27;45344;-66
2023/04/18 11:07:39;;;;;;;;;39.33;33.67;;;;;20.01;35.88;102095.28;5160233;27;45469;-65